CST,Max TemperatureF,Mean TemperatureF,Min TemperatureF,Max Dew PointF,MeanDew PointF,Min DewpointF,Max Humidity, Mean Humidity, Min Humidity, Max Sea Level PressureIn, Mean Sea Level PressureIn, Min Sea Level PressureIn, Max VisibilityMiles, Mean VisibilityMiles, Min VisibilityMiles, Max Wind SpeedMPH, Mean Wind SpeedMPH, Max Gust SpeedMPH,PrecipitationIn, CloudCover, Events, WindDirDegrees
2013-2-1,26,18,10,18,9,3,86,66,54,30.51,30.40,30.29,10,10,7,18,10,24,0.00,3,Snow,247
2013-2-2,37,32,26,30,24,19,87,76,64,30.29,30.12,30.05,10,9,2,15,10,20,0.00,7,Snow,258
2013-2-3,32,29,26,30,24,19,100,80,64,30.16,30.09,30.00,10,8,1,23,5,29,0.00,5,Snow,297
2013-2-4,44,34,24,37,30,21,93,82,69,30.10,29.91,29.81,10,10,10,16,8,20,0.00,6,Rain,205
2013-2-5,46,38,30,37,32,28,100,83,66,30.12,29.97,29.89,10,9,2,15,5,,0.00,2,,274
2013-2-6,44,36,28,34,31,28,100,83,61,30.28,30.20,30.12,10,8,2,8,4,,0.00,0,,91
2013-2-7,62,48,33,50,39,32,94,76,45,30.14,29.97,29.83,10,8,4,22,5,26,0.09,3,Rain,186
2013-2-8,42,38,33,39,32,28,93,84,75,30.38,30.23,29.93,10,10,10,24,15,31,0.00,8,,343
2013-2-9,44,38,33,34,31,28,87,76,61,30.40,30.30,30.12,10,10,10,13,5,10,0.00,3,,118
2013-2-10,53,45,37,50,43,32,93,83,71,30.12,29.87,29.69,10,10,4,25,12,33,0.34,7,Rain-Thunderstorm,158
2013-2-11,53,44,35,50,33,30,88,67,50,30.14,29.99,29.76,10,10,10,28,17,37,0.00,1,,255
2013-2-12,46,38,30,34,31,28,93,76,53,30.17,30.07,29.91,10,10,10,8,1,,0.00,1,,312
2013-2-13,48,42,35,36,32,28,93,75,53,29.92,29.87,29.83,10,10,7,13,5,,0.00,4,,241
2013-2-14,55,45,35,37,35,32,100,74,44,30.04,29.92,29.86,10,10,7,23,8,26,0.00,1,,248
2013-2-15,37,32,28,34,28,21,93,77,56,30.22,30.16,30.04,10,10,10,18,7,24,0.00,4,,305
2013-2-16,33,28,24,25,19,14,86,67,44,30.21,30.18,30.16,10,10,10,18,7,26,0.00,1,,309
2013-2-17,41,31,21,25,21,16,86,68,42,30.27,30.18,30.08,10,10,10,12,3,,0.00,0,,129
2013-2-18,60,46,32,46,35,23,93,66,36,30.07,29.85,29.59,10,9,4,31,16,40,0.32,4,Rain,181
2013-2-19,39,34,28,36,24,18,87,72,64,30.26,30.06,29.81,10,10,10,25,19,37,0.02,5,,288
2013-2-20,28,24,21,21,16,12,80,67,59,30.40,30.33,30.25,10,10,10,15,9,21,0.00,0,,336
2013-2-21,33,28,23,32,25,19,100,83,64,30.33,30.15,29.85,10,8,1,22,9,26,0.17,4,Rain-Snow,72
2013-2-22,41,36,32,36,33,27,100,88,70,30.06,29.95,29.81,10,8,1,17,7,26,0.02,7,Rain-Thunderstorm,240
2013-2-23,39,34,28,28,26,23,93,77,61,30.05,30.02,29.97,10,10,10,10,6,,0.00,0,,288
2013-2-24,44,35,26,32,28,23,100,79,53,30.17,30.11,30.03,10,9,3,6,1,,0.00,0,,37
2013-2-25,50,40,30,32,30,27,93,68,46,30.11,29.96,29.65,10,10,7,23,8,32,0.00,2,,75
2013-2-26,50,44,39,46,39,28,100,85,57,29.65,29.46,29.37,10,9,1,22,15,26,0.58,8,Rain-Thunderstorm,144
2013-2-27,39,36,33,36,33,32,93,88,75,29.82,29.73,29.58,10,9,3,22,17,31,0.01,8,Rain-Snow,256
2013-2-28,37,35,33,34,33,32,93,90,87,30.05,29.94,29.81,10,9,4,17,12,21,0.00,8,Rain-Snow,290